Time;durP1;ratioP1;P1;durP2;ratioP2;P2;SDS_P1;SDS_P2;PMS_P1;PMS_P2;Temp;Humidity;BMP_temperature;BMP_pressure;BME280_temperature;BME280_humidity;BME280_pressure;Samples;Min_cycle;Max_cycle;Signal;HPM_P1;HPM_P2
2023/01/24 00:00:36;;;;;;;;;;;;;;;3.91;77.22;103882.19;5045988;28;19925;-48
2023/01/24 00:03:02;;;;;;;;;;;;;;;3.87;77.11;103880.06;5045665;28;20393;-47
2023/01/24 00:05:27;;;;;;;;;;;;;;;3.85;77.22;103871.38;5038176;28;19925;-45
2023/01/24 00:07:52;;;;;;;;;;;;;;;3.87;77.08;103877.53;5047195;28;19917;-46
2023/01/24 00:10:17;;;;;;;;;;;;;;;3.87;77.13;103869.88;5045818;28;19929;-47
2023/01/24 00:12:43;;;;;;;;;;;;;;;3.87;76.61;103882.63;5045941;28;19956;-45
2023/01/24 00:15:08;;;;;;;;;;;;;;;3.81;76.84;103871.81;5048812;28;20406;-46
2023/01/24 00:17:34;;;;;;;;;;;;;;;3.80;77.11;103870.00;5052114;28;20326;-44
2023/01/24 00:19:59;;;;;;;;;;;;;;;3.81;76.95;103875.25;5050898;28;19925;-46
2023/01/24 00:22:24;;;;;;;;;;;;;;;3.84;77.06;103880.66;5051309;28;20014;-45
2023/01/24 00:24:49;;;;;;;;;;;;;;;3.88;77.22;103871.69;5050855;28;19971;-48
2023/01/24 00:27:15;;;;;;;;;;;;;;;3.90;77.07;103866.03;5050593;28;20349;-45
2023/01/24 00:29:41;;;;;;;;;;;;;;;3.95;77.42;103872.50;5048404;28;19981;-45
2023/01/24 00:32:06;;;;;;;;;;;;;;;3.97;76.57;103867.56;5050641;28;19925;-46
2023/01/24 00:34:31;;;;;;;;;;;;;;;3.96;76.76;103861.56;5047741;28;19921;-48
2023/01/24 00:36:57;;;;;;;;;;;;;;;3.96;77.14;103850.47;5050446;28;19928;-49
2023/01/24 00:39:22;;;;;;;;;;;;;;;3.98;76.84;103848.97;5051212;28;19921;-48
2023/01/24 00:41:47;;;;;;;;;;;;;;;3.96;76.85;103847.94;5050688;28;20011;-45
2023/01/24 00:44:12;;;;;;;;;;;;;;;3.94;77.00;103847.78;5050713;28;20340;-44
2023/01/24 00:46:38;;;;;;;;;;;;;;;3.95;77.36;103849.59;5049891;28;20289;-46
2023/01/24 00:49:03;;;;;;;;;;;;;;;4.00;77.52;103852.56;5050047;28;19956;-47
2023/01/24 00:51:28;;;;;;;;;;;;;;;4.02;77.47;103849.47;5051094;28;20336;-46
2023/01/24 00:53:53;;;;;;;;;;;;;;;4.04;76.98;103844.53;5050306;28;19917;-46
2023/01/24 00:56:19;;;;;;;;;;;;;;;4.06;76.96;103852.31;5048440;28;19924;-45
2023/01/24 00:58:44;;;;;;;;;;;;;;;4.06;77.10;103855.75;5050301;28;19928;-45
2023/01/24 01:01:09;;;;;;;;;;;;;;;3.95;76.44;103853.78;5050788;28;19917;-46
2023/01/24 01:03:35;;;;;;;;;;;;;;;3.82;76.50;103843.06;5032698;28;19916;-48
2023/01/24 01:06:01;;;;;;;;;;;;;;;3.72;76.70;103844.66;5048502;28;19929;-46
2023/01/24 01:08:27;;;;;;;;;;;;;;;3.69;77.16;103841.78;5051180;28;20336;-47
2023/01/24 01:10:52;;;;;;;;;;;;;;;3.70;77.50;103836.00;5047673;28;19925;-45
2023/01/24 01:13:17;;;;;;;;;;;;;;;3.73;77.18;103837.94;5046844;28;19936;-44
2023/01/24 01:15:42;;;;;;;;;;;;;;;3.75;77.20;103838.97;5050611;28;19975;-45
2023/01/24 01:18:08;;;;;;;;;;;;;;;3.74;77.05;103833.00;5048474;28;20297;-46
2023/01/24 01:20:33;;;;;;;;;;;;;;;3.74;76.49;103832.09;5048454;28;20589;-45
2023/01/24 01:22:58;;;;;;;;;;;;;;;3.72;76.47;103829.41;5046077;28;19932;-47
2023/01/24 01:25:24;;;;;;;;;;;;;;;3.74;76.78;103827.91;5045238;28;19927;-49
2023/01/24 01:27:49;;;;;;;;;;;;;;;3.81;76.76;103833.63;5047085;28;19925;-46
2023/01/24 01:30:14;;;;;;;;;;;;;;;3.82;76.66;103835.41;5046754;28;20327;-46
2023/01/24 01:32:40;;;;;;;;;;;;;;;3.80;76.29;103831.81;5048805;28;20057;-50
2023/01/24 01:35:05;;;;;;;;;;;;;;;3.74;76.22;103830.44;5048233;28;19951;-49
2023/01/24 01:37:30;;;;;;;;;;;;;;;3.71;76.41;103845.41;5046656;28;19932;-45
2023/01/24 01:39:55;;;;;;;;;;;;;;;3.71;76.43;103834.34;5048975;28;19962;-49
2023/01/24 01:42:21;;;;;;;;;;;;;;;3.72;76.56;103833.59;5051739;28;20011;-48
2023/01/24 01:44:48;;;;;;;;;;;;;;;3.71;76.95;103835.25;5048958;28;19916;-47
2023/01/24 01:47:17;;;;;;;;;;;;;;;3.70;76.92;103838.53;5047795;28;20492;-46
2023/01/24 01:49:45;;;;;;;;;;;;;;;3.71;76.88;103835.25;5046406;28;20373;-45
2023/01/24 01:52:11;;;;;;;;;;;;;;;3.75;77.06;103834.78;5048426;28;19935;-44
2023/01/24 01:54:44;;;;;;;;;;;;;;;3.78;76.92;103833.31;5048364;28;20492;-48
2023/01/24 01:57:15;;;;;;;;;;;;;;;3.79;77.04;103832.56;5043018;28;20008;-47
2023/01/24 01:59:47;;;;;;;;;;;;;;;3.76;76.71;103830.59;5047827;28;20361;-46
2023/01/24 02:02:12;;;;;;;;;;;;;;;3.68;77.09;103834.00;5048340;28;19931;-41
2023/01/24 02:04:41;;;;;;;;;;;;;;;3.60;77.41;103828.13;5047829;28;20289;-46
2023/01/24 02:07:10;;;;;;;;;;;;;;;3.57;77.44;103837.97;5048513;28;19917;-44
2023/01/24 02:09:43;;;;;;;;;;;;;;;3.48;77.78;103830.31;5047165;28;20385;-47
2023/01/24 02:12:13;;;;;;;;;;;;;;;3.44;78.13;103825.63;5047421;28;19954;-46
2023/01/24 02:17:31;;;;;;;;;;;;;;;3.42;78.46;103827.13;5030525;28;19921;-48
2023/01/24 02:20:05;;;;;;;;;;;;;;;3.50;78.55;103825.38;5050053;28;19924;-46
2023/01/24 02:25:28;;;;;;;;;;;;;;;3.57;78.25;103822.72;5001937;28;19918;-49
2023/01/24 02:27:54;;;;;;;;;;;;;;;3.62;77.86;103826.66;4998202;28;19917;-44
2023/01/24 02:30:19;;;;;;;;;;;;;;;3.63;77.93;103827.53;4993717;28;20078;-45
2023/01/24 02:32:45;;;;;;;;;;;;;;;3.55;77.98;103828.41;4994648;28;20051;-42
2023/01/24 02:35:30;;;;;;;;;;;;;;;3.53;78.07;103827.34;4993096;28;19922;-45
2023/01/24 02:37:57;;;;;;;;;;;;;;;3.50;78.41;103831.34;4996473;28;19987;-44
2023/01/24 02:40:23;;;;;;;;;;;;;;;3.46;78.41;103829.25;4988787;28;19922;-47
2023/01/24 02:42:49;;;;;;;;;;;;;;;3.46;78.67;103836.00;4994791;28;20290;-47
2023/01/24 02:45:19;;;;;;;;;;;;;;;3.49;78.87;103827.03;5004039;28;20298;-44
2023/01/24 02:47:46;;;;;;;;;;;;;;;3.49;78.63;103832.09;4997496;28;19952;-44
2023/01/24 02:50:11;;;;;;;;;;;;;;;3.52;78.86;103835.69;4989978;28;19921;-44
2023/01/24 02:55:20;;;;;;;;;;;;;;;3.63;78.92;103827.53;4989702;28;20055;-48
2023/01/24 03:00:30;;;;;;;;;;;;;;;3.66;78.50;103830.41;4983906;28;20331;-43
2023/01/24 03:02:55;;;;;;;;;;;;;;;3.62;78.19;103831.72;4988353;28;19922;-47
2023/01/24 03:05:20;;;;;;;;;;;;;;;3.64;78.42;103820.09;5002686;28;19933;-47
2023/01/24 03:07:45;;;;;;;;;;;;;;;3.63;78.13;103823.34;4987144;28;20751;-48
2023/01/24 03:10:13;;;;;;;;;;;;;;;3.57;78.36;103824.38;4990806;28;19926;-46
2023/01/24 03:34:39;;;;;;;;;;;;;;;3.46;79.01;103829.25;5002395;28;20677;-44
2023/01/24 03:37:05;;;;;;;;;;;;;;;3.47;79.08;103820.88;4978435;28;19999;-46
2023/01/24 03:42:14;;;;;;;;;;;;;;;3.54;79.04;103818.97;4979436;28;20412;-43
2023/01/24 03:44:39;;;;;;;;;;;;;;;3.55;78.97;103821.66;4976924;28;20020;-46
2023/01/24 03:47:04;;;;;;;;;;;;;;;3.49;79.13;103819.38;5000575;28;19973;-42
2023/01/24 03:52:29;;;;;;;;;;;;;;;3.50;79.46;103830.47;4974824;28;19928;-44
2023/01/24 03:55:00;;;;;;;;;;;;;;;3.54;79.19;103817.31;4971883;28;19926;-44
2023/01/24 03:57:26;;;;;;;;;;;;;;;3.59;79.07;103825.44;4976148;28;20015;-48
2023/01/24 03:59:52;;;;;;;;;;;;;;;3.62;78.79;103819.00;4976338;28;20287;-46
2023/01/24 04:02:17;;;;;;;;;;;;;;;3.65;78.84;103821.00;4984943;28;19918;-47
2023/01/24 04:07:26;;;;;;;;;;;;;;;3.70;78.63;103824.88;4999720;28;19925;-48
2023/01/24 04:09:52;;;;;;;;;;;;;;;3.71;78.35;103825.06;4990144;28;19921;-48
2023/01/24 04:12:17;;;;;;;;;;;;;;;3.72;78.46;103819.22;4978023;28;19926;-48
2023/01/24 04:14:42;;;;;;;;;;;;;;;3.74;78.27;103816.81;5014215;28;19967;-48
2023/01/24 04:17:08;;;;;;;;;;;;;;;3.71;77.91;103822.50;4974598;28;19924;-46
2023/01/24 04:19:33;;;;;;;;;;;;;;;3.68;78.38;103823.84;4977442;28;19934;-47
2023/01/24 04:21:58;;;;;;;;;;;;;;;3.67;78.37;103815.31;4981737;28;20339;-48
2023/01/24 04:24:24;;;;;;;;;;;;;;;3.70;78.41;103815.63;4976944;28;20817;-48
2023/01/24 04:26:49;;;;;;;;;;;;;;;3.73;78.55;103830.31;4996193;28;19979;-47
2023/01/24 04:29:14;;;;;;;;;;;;;;;3.73;78.20;103815.94;4974176;28;19989;-41
2023/01/24 04:31:40;;;;;;;;;;;;;;;3.71;78.20;103827.59;4989358;28;20017;-47
2023/01/24 04:34:05;;;;;;;;;;;;;;;3.70;78.11;103824.88;4973086;28;19991;-46
2023/01/24 04:36:30;;;;;;;;;;;;;;;3.70;78.37;103824.88;4991675;28;19927;-45
2023/01/24 04:38:55;;;;;;;;;;;;;;;3.75;78.26;103832.25;4982388;28;20400;-47
2023/01/24 04:41:20;;;;;;;;;;;;;;;3.75;78.11;103828.81;4982552;28;20455;-49
2023/01/24 04:43:46;;;;;;;;;;;;;;;3.73;77.75;103835.38;4975059;28;20450;-46
2023/01/24 04:46:11;;;;;;;;;;;;;;;3.73;77.95;103828.66;5002827;28;19923;-47
2023/01/24 04:48:36;;;;;;;;;;;;;;;3.71;77.90;103827.59;4981773;28;19922;-46
2023/01/24 04:51:02;;;;;;;;;;;;;;;3.68;77.76;103824.72;4987583;28;19969;-47
2023/01/24 04:53:28;;;;;;;;;;;;;;;3.66;77.87;103826.22;5006045;28;19935;-42
2023/01/24 04:55:54;;;;;;;;;;;;;;;3.66;78.13;103822.78;5014203;28;20291;-49
2023/01/24 04:58:19;;;;;;;;;;;;;;;3.64;78.19;103832.81;5007034;28;19918;-45
2023/01/24 05:00:44;;;;;;;;;;;;;;;3.66;78.45;103831.31;5009087;28;19922;-42
2023/01/24 05:03:09;;;;;;;;;;;;;;;3.63;78.04;103833.53;5006361;28;19924;-44
2023/01/24 05:05:35;;;;;;;;;;;;;;;3.61;78.29;103835.03;5009550;28;19932;-48
2023/01/24 05:08:00;;;;;;;;;;;;;;;3.55;78.33;103834.38;4983871;28;20302;-45
2023/01/24 05:10:26;;;;;;;;;;;;;;;3.44;78.76;103830.72;5004242;28;19922;-45
2023/01/24 05:12:51;;;;;;;;;;;;;;;3.37;79.29;103835.03;5005812;28;19921;-47
2023/01/24 05:15:17;;;;;;;;;;;;;;;3.32;79.46;103832.00;5009032;28;19971;-49
2023/01/24 05:17:43;;;;;;;;;;;;;;;3.37;79.83;103835.03;5003811;28;20030;-48
2023/01/24 05:20:09;;;;;;;;;;;;;;;3.40;79.69;103843.88;4998027;28;20342;-48
2023/01/24 05:22:34;;;;;;;;;;;;;;;3.39;79.82;103842.06;5001958;28;19928;-44
2023/01/24 05:25:00;;;;;;;;;;;;;;;3.39;79.58;103847.16;4977513;28;19934;-45
2023/01/24 05:27:25;;;;;;;;;;;;;;;3.42;79.74;103852.56;4976980;28;19936;-48
2023/01/24 05:29:50;;;;;;;;;;;;;;;3.45;79.51;103847.78;4985487;28;19964;-45
2023/01/24 05:32:15;;;;;;;;;;;;;;;3.47;79.53;103843.78;4986420;28;19973;-44
2023/01/24 05:34:40;;;;;;;;;;;;;;;3.51;79.46;103844.97;4986789;28;19941;-41
2023/01/24 05:37:06;;;;;;;;;;;;;;;3.47;79.22;103845.44;4983410;28;19926;-48
2023/01/24 05:39:31;;;;;;;;;;;;;;;3.38;79.09;103842.81;4976080;28;19922;-49
2023/01/24 05:41:56;;;;;;;;;;;;;;;3.38;79.19;103845.34;4988840;28;20734;-45
2023/01/24 05:44:21;;;;;;;;;;;;;;;3.40;79.44;103848.06;4974254;28;19922;-49
2023/01/24 05:46:47;;;;;;;;;;;;;;;3.43;79.53;103848.38;4974119;28;19918;-46
2023/01/24 05:49:12;;;;;;;;;;;;;;;3.43;79.35;103850.91;4976006;28;20012;-40
2023/01/24 05:51:37;;;;;;;;;;;;;;;3.48;79.38;103849.75;4973213;28;19933;-44
2023/01/24 05:54:03;;;;;;;;;;;;;;;3.52;79.45;103863.69;4988772;28;19926;-48
2023/01/24 05:56:28;;;;;;;;;;;;;;;3.55;79.22;103869.09;4974969;28;19924;-47
2023/01/24 05:58:53;;;;;;;;;;;;;;;3.53;79.34;103876.59;4969808;28;20390;-44
2023/01/24 06:01:19;;;;;;;;;;;;;;;3.48;79.09;103875.22;4973127;28;19984;-44
2023/01/24 06:03:46;;;;;;;;;;;;;;;3.44;79.33;103873.06;4993178;28;19936;-48
2023/01/24 06:06:12;;;;;;;;;;;;;;;3.40;79.14;103876.06;4973290;28;19984;-45
2023/01/24 06:08:37;;;;;;;;;;;;;;;3.34;79.63;103875.41;4978882;28;19947;-48
2023/01/24 06:11:05;;;;;;;;;;;;;;;3.35;79.67;103874.66;4969244;28;19922;-46
2023/01/24 06:13:30;;;;;;;;;;;;;;;3.40;79.75;103876.06;4964354;28;20387;-43
2023/01/24 06:16:06;;;;;;;;;;;;;;;3.44;79.64;103878.16;4971879;28;19983;-43
2023/01/24 06:18:32;;;;;;;;;;;;;;;3.44;79.30;103883.25;4976690;28;19926;-45
2023/01/24 06:20:57;;;;;;;;;;;;;;;3.39;79.63;103879.31;4969838;28;19922;-47
2023/01/24 06:23:24;;;;;;;;;;;;;;;3.32;79.68;103875.22;4977260;28;19941;-51
2023/01/24 06:25:49;;;;;;;;;;;;;;;3.28;79.76;103883.28;4970885;28;19930;-55
2023/01/24 06:28:15;;;;;;;;;;;;;;;3.26;79.85;103878.75;4976381;28;19920;-47
2023/01/24 06:30:41;;;;;;;;;;;;;;;3.20;79.67;103885.00;4971415;28;20395;-49
2023/01/24 06:33:25;;;;;;;;;;;;;;;3.14;80.20;103884.34;4964246;28;20824;-48
2023/01/24 06:35:50;;;;;;;;;;;;;;;3.04;80.64;103886.69;4973438;28;20393;-49
2023/01/24 06:38:20;;;;;;;;;;;;;;;3.04;80.61;103884.13;4977386;28;19926;-48
2023/01/24 06:40:46;;;;;;;;;;;;;;;3.05;80.88;103883.41;4972443;28;19924;-46
2023/01/24 06:43:11;;;;;;;;;;;;;;;3.01;81.08;103883.78;4969024;28;19930;-51
2023/01/24 06:45:37;;;;;;;;;;;;;;;3.01;81.24;103888.88;4983793;28;19929;-47
2023/01/24 06:48:02;;;;;;;;;;;;;;;3.06;81.12;103889.38;4970683;28;19932;-51
2023/01/24 06:50:31;;;;;;;;;;;;;;;3.09;81.07;103890.59;4975477;28;19929;-49
2023/01/24 06:52:56;;;;;;;;;;;;;;;3.12;81.13;103892.56;4974434;28;19918;-46
2023/01/24 06:55:22;;;;;;;;;;;;;;;3.13;80.86;103889.28;4978873;28;19916;-49
2023/01/24 06:57:53;;;;;;;;;;;;;;;3.11;80.84;103884.03;4971149;28;19920;-46
2023/01/24 07:00:18;;;;;;;;;;;;;;;3.06;80.93;103890.28;4967089;28;19927;-45
2023/01/24 07:02:43;;;;;;;;;;;;;;;3.00;80.74;103892.16;4964552;28;19924;-49
2023/01/24 07:05:09;;;;;;;;;;;;;;;3.01;80.83;103893.06;4962777;28;20344;-48
2023/01/24 07:07:34;;;;;;;;;;;;;;;2.96;81.17;103896.00;4969621;28;20533;-46
2023/01/24 07:09:59;;;;;;;;;;;;;;;2.95;80.97;103900.94;4981303;28;20423;-49
2023/01/24 07:12:24;;;;;;;;;;;;;;;2.95;81.29;103901.84;4982147;28;20389;-49
2023/01/24 07:14:50;;;;;;;;;;;;;;;3.01;81.14;103908.31;4978284;28;20334;-49
2023/01/24 07:17:15;;;;;;;;;;;;;;;3.05;80.78;103920.63;4982435;28;20363;-50
2023/01/24 07:19:40;;;;;;;;;;;;;;;3.05;80.99;103918.09;4977065;28;20353;-50
2023/01/24 07:22:10;;;;;;;;;;;;;;;3.06;80.96;103923.31;4978552;28;20362;-43
2023/01/24 07:24:35;;;;;;;;;;;;;;;3.06;80.72;103920.78;4988487;28;19931;-43
2023/01/24 07:27:01;;;;;;;;;;;;;;;3.08;81.02;103932.00;4977105;28;19925;-44
2023/01/24 07:29:26;;;;;;;;;;;;;;;3.09;80.54;103936.34;4969467;28;20386;-45
2023/01/24 07:31:52;;;;;;;;;;;;;;;3.09;80.72;103932.91;4967151;28;20025;-48
2023/01/24 07:34:18;;;;;;;;;;;;;;;3.02;80.61;103931.34;4971239;28;20029;-45
2023/01/24 07:36:44;;;;;;;;;;;;;;;3.03;80.83;103934.78;4970693;28;19922;-50
2023/01/24 07:39:09;;;;;;;;;;;;;;;3.04;80.74;103929.91;4973870;28;19921;-49
2023/01/24 07:41:35;;;;;;;;;;;;;;;3.09;80.87;103931.25;4979440;28;19949;-49
2023/01/24 07:44:04;;;;;;;;;;;;;;;3.16;80.65;103933.75;4983261;28;20421;-44
2023/01/24 07:46:30;;;;;;;;;;;;;;;3.19;80.63;103941.69;4968711;28;20369;-46
2023/01/24 07:48:55;;;;;;;;;;;;;;;3.25;80.53;103940.53;4970891;28;19964;-47
2023/01/24 07:51:20;;;;;;;;;;;;;;;3.29;80.43;103941.03;4965098;28;19969;-45
2023/01/24 07:53:46;;;;;;;;;;;;;;;3.35;80.02;103940.78;4970481;28;19929;-46
2023/01/24 07:56:12;;;;;;;;;;;;;;;3.31;79.97;103944.66;4989251;28;19923;-43
2023/01/24 07:58:37;;;;;;;;;;;;;;;3.30;80.14;103940.31;4972807;28;19965;-46
2023/01/24 08:01:02;;;;;;;;;;;;;;;3.26;79.77;103945.78;4970736;28;19931;-50
2023/01/24 08:03:27;;;;;;;;;;;;;;;3.27;80.16;103951.78;4972810;28;19962;-47
2023/01/24 08:05:53;;;;;;;;;;;;;;;3.31;80.13;103959.00;4971860;28;19980;-45
2023/01/24 08:08:18;;;;;;;;;;;;;;;3.34;80.06;103951.72;4981926;28;19969;-46
2023/01/24 08:10:44;;;;;;;;;;;;;;;3.32;79.74;103951.53;4970576;28;19933;-47
2023/01/24 08:13:09;;;;;;;;;;;;;;;3.27;80.03;103952.69;4973267;28;19918;-54
2023/01/24 08:15:35;;;;;;;;;;;;;;;3.25;80.25;103948.19;4975735;28;19980;-47
2023/01/24 08:18:03;;;;;;;;;;;;;;;3.25;80.52;103946.53;4969144;28;19926;-46
2023/01/24 08:20:29;;;;;;;;;;;;;;;3.33;80.48;103952.44;4975130;28;19930;-45
2023/01/24 08:22:57;;;;;;;;;;;;;;;3.39;80.27;103953.06;4970828;28;19921;-43
2023/01/24 08:25:23;;;;;;;;;;;;;;;3.44;80.35;103952.84;4966767;28;20451;-43
2023/01/24 08:27:48;;;;;;;;;;;;;;;3.37;79.80;103950.38;4969374;28;20020;-47
2023/01/24 08:30:15;;;;;;;;;;;;;;;3.30;79.84;103962.28;4978368;28;19940;-45
2023/01/24 08:32:41;;;;;;;;;;;;;;;3.16;79.77;103956.63;4969625;28;20302;-44
2023/01/24 08:35:06;;;;;;;;;;;;;;;3.04;80.37;103964.59;4972947;28;19933;-45
2023/01/24 08:37:31;;;;;;;;;;;;;;;3.02;80.52;103959.31;4974629;28;20063;-50
2023/01/24 08:39:56;;;;;;;;;;;;;;;3.08;80.62;103961.63;4977994;28;19928;-48
2023/01/24 08:42:22;;;;;;;;;;;;;;;3.14;80.39;103975.88;4980638;28;19930;-45
2023/01/24 08:44:48;;;;;;;;;;;;;;;3.14;80.08;103968.25;4970871;28;20523;-47
2023/01/24 08:47:13;;;;;;;;;;;;;;;3.04;79.91;103988.38;4976475;28;19927;-43
2023/01/24 08:49:38;;;;;;;;;;;;;;;2.91;80.28;103990.28;4972498;28;19926;-48
2023/01/24 08:52:04;;;;;;;;;;;;;;;2.86;80.32;103986.38;4965126;28;20057;-47
2023/01/24 08:54:32;;;;;;;;;;;;;;;2.74;80.50;103980.84;4986552;28;19939;-46
2023/01/24 08:56:57;;;;;;;;;;;;;;;2.74;80.65;103979.94;4965703;28;20022;-48
2023/01/24 08:59:22;;;;;;;;;;;;;;;2.80;80.71;103983.16;4965867;28;20014;-48
2023/01/24 09:01:48;;;;;;;;;;;;;;;2.87;80.71;103989.06;4976823;28;19926;-49
2023/01/24 09:04:13;;;;;;;;;;;;;;;2.94;80.73;103988.09;4972873;28;19926;-48
2023/01/24 09:06:38;;;;;;;;;;;;;;;2.94;80.19;103988.09;4974604;28;20314;-47
2023/01/24 09:09:04;;;;;;;;;;;;;;;2.89;80.62;103987.59;4962175;28;20056;-44
2023/01/24 09:11:29;;;;;;;;;;;;;;;2.87;80.90;103989.06;4969328;28;19922;-46
2023/01/24 09:13:55;;;;;;;;;;;;;;;2.89;80.76;103986.69;4978148;28;20476;-47
2023/01/24 09:16:20;;;;;;;;;;;;;;;2.95;80.82;103990.81;4970380;28;19922;-48
2023/01/24 09:18:45;;;;;;;;;;;;;;;3.03;80.76;103989.06;4966862;28;19926;-47
2023/01/24 09:21:10;;;;;;;;;;;;;;;3.08;80.78;103982.84;4964875;28;19984;-46
2023/01/24 09:23:36;;;;;;;;;;;;;;;3.11;80.35;103988.28;4972056;28;19934;-44
2023/01/24 09:26:01;;;;;;;;;;;;;;;3.15;79.77;103990.41;4975903;28;20326;-44
2023/01/24 09:28:27;;;;;;;;;;;;;;;3.16;79.83;103993.88;4966209;28;19961;-48
2023/01/24 09:30:52;;;;;;;;;;;;;;;3.07;79.56;103992.88;4970039;28;19934;-45
2023/01/24 09:33:18;;;;;;;;;;;;;;;3.08;80.34;103999.75;4964167;28;19937;-44
2023/01/24 09:35:53;;;;;;;;;;;;;;;3.15;80.49;103997.13;4968237;28;19927;-45
2023/01/24 09:38:18;;;;;;;;;;;;;;;3.20;80.21;103986.72;4980872;28;19928;-45
2023/01/24 09:40:45;;;;;;;;;;;;;;;3.26;80.10;103995.75;4979568;28;19925;-48
2023/01/24 09:43:35;;;;;;;;;;;;;;;3.30;80.03;103991.16;4965321;28;20458;-43
2023/01/24 09:46:05;;;;;;;;;;;;;;;3.37;79.99;104001.25;4975818;28;19960;-46
2023/01/24 09:48:32;;;;;;;;;;;;;;;3.41;79.85;103994.88;4971970;28;19953;-42
2023/01/24 09:51:01;;;;;;;;;;;;;;;3.45;79.43;104002.97;4966394;28;19925;-45
2023/01/24 09:53:28;;;;;;;;;;;;;;;3.45;78.86;104004.59;4977122;28;19964;-46
2023/01/24 09:55:54;;;;;;;;;;;;;;;3.44;79.53;104011.34;4969476;28;19972;-46
2023/01/24 09:58:31;;;;;;;;;;;;;;;3.46;79.68;104006.44;4964876;28;19969;-43
2023/01/24 10:01:08;;;;;;;;;;;;;;;3.52;79.36;104012.19;4979978;28;19922;-48
2023/01/24 10:03:34;;;;;;;;;;;;;;;3.59;79.53;104016.28;4970829;28;19923;-47
2023/01/24 10:06:06;;;;;;;;;;;;;;;3.53;77.67;104008.91;4971177;28;19926;-49
2023/01/24 10:08:31;;;;;;;;;;;;;;;3.50;79.05;104011.09;4970929;28;19922;-43
2023/01/24 10:11:04;;;;;;;;;;;;;;;3.38;78.37;104005.59;4970137;28;20040;-46
2023/01/24 10:13:51;;;;;;;;;;;;;;;3.35;79.13;104017.09;4968336;28;20399;-42
2023/01/24 10:16:16;;;;;;;;;;;;;;;3.35;79.47;104012.91;4957182;28;19948;-46
2023/01/24 10:19:00;;;;;;;;;;;;;;;3.37;79.45;104002.91;4960368;28;20391;-50
2023/01/24 10:21:41;;;;;;;;;;;;;;;3.40;79.60;104009.22;4963569;28;19925;-46
2023/01/24 10:24:09;;;;;;;;;;;;;;;3.40;79.23;104011.78;4967949;28;20996;-45
2023/01/24 10:26:38;;;;;;;;;;;;;;;3.41;79.04;104017.75;4979200;28;20299;-50
2023/01/24 10:29:16;;;;;;;;;;;;;;;3.32;78.51;104022.75;4965770;28;20393;-46
2023/01/24 10:31:43;;;;;;;;;;;;;;;3.23;79.04;104016.69;4977123;28;20593;-44
2023/01/24 10:34:11;;;;;;;;;;;;;;;3.27;79.38;104017.91;4975460;28;19922;-46
2023/01/24 10:36:47;;;;;;;;;;;;;;;3.28;78.75;104013.00;4964915;28;19929;-46
2023/01/24 10:39:12;;;;;;;;;;;;;;;3.28;79.22;104010.47;4965549;28;20406;-43
2023/01/24 10:41:38;;;;;;;;;;;;;;;3.30;79.02;104002.97;4983528;28;19931;-47
2023/01/24 10:44:22;;;;;;;;;;;;;;;3.30;78.33;104003.88;4983452;28;19932;-46
2023/01/24 10:46:47;;;;;;;;;;;;;;;3.32;78.60;104004.03;4973424;28;20410;-45
2023/01/24 10:49:22;;;;;;;;;;;;;;;3.32;78.75;104010.03;4968212;28;19931;-43
2023/01/24 10:52:06;;;;;;;;;;;;;;;3.33;78.40;104003.28;4980528;28;19923;-47
2023/01/24 10:54:40;;;;;;;;;;;;;;;3.32;77.99;104010.03;4996924;28;19976;-49
2023/01/24 10:57:10;;;;;;;;;;;;;;;3.33;77.99;104009.28;4965857;28;19926;-48
2023/01/24 10:59:40;;;;;;;;;;;;;;;3.32;77.93;104007.47;4974499;28;20419;-44
2023/01/24 11:02:18;;;;;;;;;;;;;;;3.33;77.94;104009.28;4993630;28;19938;-43
2023/01/24 11:04:43;;;;;;;;;;;;;;;3.28;77.43;104000.28;4980194;28;20370;-48
2023/01/24 11:07:25;;;;;;;;;;;;;;;3.26;77.54;104004.28;4971786;28;19980;-44
2023/01/24 11:09:51;;;;;;;;;;;;;;;3.21;77.60;104000.34;4965151;28;20593;-44
2023/01/24 11:12:18;;;;;;;;;;;;;;;3.17;77.88;104006.75;4993502;28;20017;-42
2023/01/24 11:14:47;;;;;;;;;;;;;;;3.16;77.80;103997.31;4969973;28;19922;-53
2023/01/24 11:17:28;;;;;;;;;;;;;;;3.15;77.91;103994.59;4977994;28;19968;-48
2023/01/24 11:19:58;;;;;;;;;;;;;;;3.16;78.14;103992.25;4967067;28;19918;-53
2023/01/24 11:22:24;;;;;;;;;;;;;;;3.17;77.85;103983.88;4970662;28;19929;-47
2023/01/24 11:24:49;;;;;;;;;;;;;;;3.15;77.10;103987.84;4999575;28;19926;-49
2023/01/24 11:27:19;;;;;;;;;;;;;;;3.05;77.86;103982.53;4971067;28;20460;-51
2023/01/24 11:29:44;;;;;;;;;;;;;;;3.05;78.08;103984.19;4974124;28;19927;-44
2023/01/24 11:32:28;;;;;;;;;;;;;;;3.04;77.20;103988.38;4971206;28;19937;-47
2023/01/24 11:34:57;;;;;;;;;;;;;;;3.03;77.39;103978.00;5000804;28;20354;-49
2023/01/24 11:37:26;;;;;;;;;;;;;;;3.03;77.89;103971.28;4978157;28;20363;-47
2023/01/24 11:39:51;;;;;;;;;;;;;;;3.10;77.64;103966.16;4978127;28;19926;-44
2023/01/24 11:42:36;;;;;;;;;;;;;;;3.14;77.85;103967.38;4975687;28;19924;-50
2023/01/24 11:45:07;;;;;;;;;;;;;;;3.14;77.97;103962.28;4967592;28;19975;-48
2023/01/24 11:47:36;;;;;;;;;;;;;;;3.14;77.56;103962.28;4969534;28;19929;-45
2023/01/24 11:50:20;;;;;;;;;;;;;;;3.15;77.41;103961.53;4969414;28;19931;-46
2023/01/24 11:52:56;;;;;;;;;;;;;;;3.17;77.86;103966.06;4966187;28;19977;-48
2023/01/24 11:55:27;;;;;;;;;;;;;;;3.17;77.35;103967.72;4971210;28;20531;-47
2023/01/24 11:58:05;;;;;;;;;;;;;;;3.16;77.08;103961.72;4968676;28;19969;-49
2023/01/24 12:00:34;;;;;;;;;;;;;;;3.18;77.49;103962.78;4982098;28;19926;-45
2023/01/24 12:03:06;;;;;;;;;;;;;;;3.21;77.66;103958.00;4967395;28;19922;-44
2023/01/24 12:05:46;;;;;;;;;;;;;;;3.29;77.82;103952.88;4971433;28;19967;-49
2023/01/24 12:08:21;;;;;;;;;;;;;;;3.34;77.34;103944.09;4981522;28;19933;-45
2023/01/24 12:10:52;;;;;;;;;;;;;;;3.34;76.71;103947.53;4972029;28;20310;-45
2023/01/24 12:13:31;;;;;;;;;;;;;;;3.36;77.26;103940.94;4966933;28;20487;-44
2023/01/24 12:16:11;;;;;;;;;;;;;;;3.36;76.79;103933.31;4987842;28;19964;-48
2023/01/24 12:18:58;;;;;;;;;;;;;;;3.39;76.79;103928.53;5015334;28;19925;-49
2023/01/24 12:21:23;;;;;;;;;;;;;;;3.44;76.45;103932.47;5004724;28;20488;-48
2023/01/24 12:23:48;;;;;;;;;;;;;;;3.46;76.96;103931.03;4992384;28;19933;-46
2023/01/24 12:26:16;;;;;;;;;;;;;;;3.52;76.96;103925.69;4984147;28;19925;-50
2023/01/24 12:29:08;;;;;;;;;;;;;;;3.53;76.29;103926.56;5015853;28;20282;-48
2023/01/24 12:31:39;;;;;;;;;;;;;;;3.52;76.00;103912.97;4984519;28;20608;-47
2023/01/24 12:34:09;;;;;;;;;;;;;;;3.46;76.32;103920.84;5019929;28;20060;-50
2023/01/24 12:36:48;;;;;;;;;;;;;;;3.49;76.54;103921.16;4981634;28;19966;-45
2023/01/24 12:39:20;;;;;;;;;;;;;;;3.47;75.53;103921.75;4989253;28;20033;-45
2023/01/24 12:41:50;;;;;;;;;;;;;;;3.36;75.29;103918.06;4968031;28;19953;-45
2023/01/24 12:44:28;;;;;;;;;;;;;;;3.32;76.01;103915.03;4976886;28;20366;-44
2023/01/24 12:47:02;;;;;;;;;;;;;;;3.34;76.32;103913.56;4972635;28;20386;-51
2023/01/24 12:49:33;;;;;;;;;;;;;;;3.36;76.16;103912.97;4976187;28;19922;-47
2023/01/24 12:52:02;;;;;;;;;;;;;;;3.39;76.46;103907.28;4980791;28;20371;-48
2023/01/24 12:54:30;;;;;;;;;;;;;;;3.44;76.65;103901.94;4968505;28;19926;-46
2023/01/24 12:57:01;;;;;;;;;;;;;;;3.44;75.07;103898.50;4977388;28;20018;-44
2023/01/24 12:59:28;;;;;;;;;;;;;;;3.39;75.56;103897.13;4975960;28;20100;-46
2023/01/24 13:02:12;;;;;;;;;;;;;;;3.42;76.32;103892.38;4978378;28;19993;-42
2023/01/24 13:05:00;;;;;;;;;;;;;;;3.45;75.93;103892.69;4976602;28;19925;-45
2023/01/24 13:07:31;;;;;;;;;;;;;;;3.45;75.39;103897.75;4978239;28;19926;-47
2023/01/24 13:10:10;;;;;;;;;;;;;;;3.46;76.18;103894.50;4973286;28;21847;-43
2023/01/24 13:12:35;;;;;;;;;;;;;;;3.49;75.95;103894.81;4966725;28;19925;-45
2023/01/24 13:15:06;;;;;;;;;;;;;;;3.47;75.71;103893.75;4958776;28;19930;-46
2023/01/24 13:17:43;;;;;;;;;;;;;;;3.43;75.53;103884.00;4978680;28;19922;-49
2023/01/24 13:20:31;;;;;;;;;;;;;;;3.39;75.55;103887.84;4980885;28;19959;-47
2023/01/24 13:23:08;;;;;;;;;;;;;;;3.33;75.38;103883.75;4974830;28;19925;-43
2023/01/24 13:25:36;;;;;;;;;;;;;;;3.32;75.98;103889.59;4973582;28;19920;-42
2023/01/24 13:28:15;;;;;;;;;;;;;;;3.35;76.46;103887.38;4982296;28;20391;-44
2023/01/24 13:30:44;;;;;;;;;;;;;;;3.41;76.39;103888.03;4973179;28;19926;-48
2023/01/24 13:33:15;;;;;;;;;;;;;;;3.42;76.15;103884.75;4969912;28;19918;-50